createdAt,value
2023-02-08T00:01:14.414Z,103917.47
2023-02-08T00:03:42.280Z,103910.34
2023-02-08T00:06:10.815Z,103912.13
2023-02-08T00:08:39.077Z,103911.25
2023-02-08T00:11:07.551Z,103903.25
2023-02-08T00:13:36.663Z,103907.69
2023-02-08T00:16:05.088Z,103911.25
2023-02-08T00:18:33.045Z,103908.56
2023-02-08T00:21:00.848Z,103913.00
2023-02-08T00:23:28.892Z,103917.44
2023-02-08T00:25:56.635Z,103908.56
2023-02-08T00:28:24.432Z,103904.09
2023-02-08T00:30:53.610Z,103903.19
2023-02-08T00:33:21.358Z,103881.81
2023-02-08T00:35:49.123Z,103889.81
2023-02-08T00:38:16.940Z,103885.34
2023-02-08T00:40:44.683Z,103880.03
2023-02-08T00:43:12.430Z,103873.78
2023-02-08T00:45:40.179Z,103880.03
2023-02-08T00:48:09.370Z,103878.22
2023-02-08T00:50:37.136Z,103875.56
2023-02-08T00:53:05.285Z,103870.22
2023-02-08T00:55:33.015Z,103873.81
2023-02-08T00:58:00.799Z,103866.69
2023-02-08T01:00:28.612Z,103870.25
2023-02-08T01:02:56.392Z,103864.94
2023-02-08T01:05:25.552Z,103872.06
2023-02-08T01:07:53.310Z,103874.72
2023-02-08T01:10:21.114Z,103872.06
2023-02-08T01:12:48.867Z,103870.25
2023-02-08T01:15:16.663Z,103875.59
2023-02-08T01:17:44.586Z,103877.38
2023-02-08T01:20:12.843Z,103868.50
2023-02-08T01:22:42.009Z,103874.72
2023-02-08T01:25:10.390Z,103864.94
2023-02-08T01:27:38.134Z,103878.28
2023-02-08T01:30:07.004Z,103872.06
2023-02-08T01:32:34.778Z,103873.81
2023-02-08T01:35:02.510Z,103875.66
2023-02-08T01:37:30.360Z,103867.66
2023-02-08T01:39:59.549Z,103870.31
2023-02-08T01:42:27.497Z,103865.84
2023-02-08T01:45:30.046Z,103860.50
2023-02-08T01:48:11.833Z,103865.84
2023-02-08T01:50:47.931Z,103861.41
2023-02-08T01:53:15.899Z,103855.19
2023-02-08T01:55:49.229Z,103861.44
2023-02-08T01:58:19.177Z,103855.22
2023-02-08T02:00:48.011Z,103863.22
2023-02-08T02:03:16.570Z,103859.63
2023-02-08T02:05:46.739Z,103858.75
2023-02-08T02:08:14.931Z,103864.97
2023-02-08T02:10:43.559Z,103861.41
2023-02-08T02:13:16.254Z,103857.84
2023-02-08T02:15:46.322Z,103861.44
2023-02-08T02:18:20.335Z,103855.22
2023-02-08T02:21:02.254Z,103856.09
2023-02-08T02:23:56.436Z,103851.63
2023-02-08T02:27:09.110Z,103854.31
2023-02-08T02:30:25.940Z,103850.72
2023-02-08T02:33:09.331Z,103846.28
2023-02-08T02:35:47.569Z,103846.25
2023-02-08T02:38:28.935Z,103841.81
2023-02-08T02:41:07.251Z,103841.81
2023-02-08T02:43:46.152Z,103838.28
2023-02-08T02:46:25.322Z,103838.28
2023-02-08T02:49:03.202Z,103833.81
2023-02-08T02:51:39.682Z,103829.34
2023-02-08T02:54:12.623Z,103824.94
2023-02-08T02:56:43.917Z,103822.25
2023-02-08T02:59:13.285Z,103817.81
2023-02-08T03:01:43.009Z,103821.34
2023-02-08T03:04:16.443Z,103817.81
2023-02-08T03:07:00.048Z,103813.34
2023-02-08T03:09:53.234Z,103820.44
2023-02-08T03:12:37.056Z,103820.47
2023-02-08T03:15:15.184Z,103818.69
2023-02-08T03:17:57.078Z,103821.34
2023-02-08T03:20:29.087Z,103823.13
2023-02-08T03:23:04.888Z,103814.22
2023-02-08T03:25:38.487Z,103828.47
2023-02-08T03:28:12.817Z,103825.78
2023-02-08T03:30:51.257Z,103836.47
2023-02-08T03:33:26.113Z,103835.53
2023-02-08T03:36:00.857Z,103835.56
2023-02-08T03:38:32.910Z,103831.09
2023-02-08T03:41:05.523Z,103824.00
2023-02-08T03:43:37.691Z,103830.22
2023-02-08T03:46:11.388Z,103818.66
2023-02-08T03:48:40.227Z,103822.22
2023-02-08T03:51:11.014Z,103831.09
2023-02-08T03:53:40.603Z,103824.88
2023-02-08T03:56:15.864Z,103824.88
2023-02-08T03:58:49.112Z,103817.75
2023-02-08T04:01:24.103Z,103825.72
2023-02-08T04:03:54.646Z,103831.06
2023-02-08T04:06:24.563Z,103828.38
2023-02-08T04:08:52.751Z,103831.03
2023-02-08T04:11:20.571Z,103825.72
2023-02-08T04:13:48.305Z,103830.13
2023-02-08T04:16:16.035Z,103832.81
2023-02-08T04:18:43.800Z,103821.22
2023-02-08T04:21:11.532Z,103828.34
2023-02-08T04:23:40.614Z,103822.97
2023-02-08T04:26:08.830Z,103829.22
2023-02-08T04:28:36.746Z,103832.78
2023-02-08T04:31:04.842Z,103826.53
2023-02-08T04:33:32.680Z,103828.31
2023-02-08T04:36:00.452Z,103819.41
2023-02-08T04:38:28.271Z,103817.66
2023-02-08T04:40:57.407Z,103814.06
2023-02-08T04:43:25.168Z,103807.88
2023-02-08T04:45:53.428Z,103804.28
2023-02-08T04:48:21.209Z,103806.97
2023-02-08T04:50:49.253Z,103809.63
2023-02-08T04:53:17.037Z,103815.84
2023-02-08T04:55:44.766Z,103810.50
2023-02-08T04:58:13.857Z,103807.84
2023-02-08T05:00:41.943Z,103796.25
2023-02-08T05:03:10.255Z,103800.69
2023-02-08T05:05:38.131Z,103800.69
2023-02-08T05:08:06.525Z,103797.16
2023-02-08T05:10:34.376Z,103793.56
2023-02-08T05:13:02.192Z,103801.56
2023-02-08T05:15:31.259Z,103798.03
2023-02-08T05:17:59.056Z,103791.78
2023-02-08T05:20:26.813Z,103792.66
2023-02-08T05:22:54.537Z,103790.91
2023-02-08T05:25:22.270Z,103790.88
2023-02-08T05:27:50.069Z,103792.66
2023-02-08T05:30:18.048Z,103792.66
2023-02-08T05:32:47.169Z,103798.88
2023-02-08T05:35:14.930Z,103793.56
2023-02-08T05:37:42.691Z,103795.31
2023-02-08T05:40:13.193Z,103805.09
2023-02-08T05:42:42.371Z,103799.78
2023-02-08T05:45:10.614Z,103791.78
2023-02-08T05:47:38.325Z,103800.66
2023-02-08T05:50:07.765Z,103794.41
2023-02-08T05:52:35.460Z,103796.19
2023-02-08T05:55:03.247Z,103796.16
2023-02-08T05:57:32.304Z,103793.50
2023-02-08T06:00:00.859Z,103793.50
2023-02-08T06:02:28.612Z,103789.94
2023-02-08T06:04:56.330Z,103780.13
2023-02-08T06:07:25.471Z,103776.56
2023-02-08T06:09:53.247Z,103779.19
2023-02-08T06:12:21.087Z,103776.53
2023-02-08T06:14:48.879Z,103780.94
2023-02-08T06:17:16.800Z,103780.06
2023-02-08T06:19:44.609Z,103777.41
2023-02-08T06:22:12.391Z,103777.41
2023-02-08T06:24:41.563Z,103780.94
2023-02-08T06:27:09.574Z,103775.63
2023-02-08T06:29:37.281Z,103784.50
2023-02-08T06:32:05.338Z,103781.81
2023-02-08T06:34:33.192Z,103778.25
2023-02-08T06:37:02.273Z,103779.16
2023-02-08T06:39:30.634Z,103784.50
2023-02-08T06:41:59.827Z,103788.91
2023-02-08T06:44:27.962Z,103794.22
2023-02-08T06:46:55.742Z,103795.13
2023-02-08T06:49:23.625Z,103806.69
2023-02-08T06:51:51.372Z,103805.81
2023-02-08T06:54:19.304Z,103807.59
2023-02-08T06:56:47.119Z,103804.06
2023-02-08T06:59:16.329Z,103809.38
2023-02-08T07:01:44.128Z,103804.06
2023-02-08T07:04:11.918Z,103803.13
2023-02-08T07:06:39.820Z,103796.94
2023-02-08T07:09:07.551Z,103791.56
2023-02-08T07:11:35.314Z,103789.78
2023-02-08T07:14:03.132Z,103788.91
2023-02-08T07:16:32.354Z,103787.06
2023-02-08T07:19:00.116Z,103784.41
2023-02-08T07:21:27.895Z,103775.53
2023-02-08T07:23:55.795Z,103777.28
2023-02-08T07:26:23.548Z,103785.28
2023-02-08T07:28:51.325Z,103781.69
2023-02-08T07:31:19.382Z,103790.59
2023-02-08T07:33:48.469Z,103797.69
2023-02-08T07:36:16.510Z,103789.69
2023-02-08T07:38:44.241Z,103790.59
2023-02-08T07:41:14.111Z,103787.94
2023-02-08T07:43:43.029Z,103790.59
2023-02-08T07:46:13.200Z,103785.28
2023-02-08T07:48:41.080Z,103785.28
2023-02-08T07:51:11.385Z,103784.44
2023-02-08T07:53:39.616Z,103781.78
2023-02-08T07:56:07.887Z,103795.09
2023-02-08T07:58:35.662Z,103795.09
2023-02-08T08:01:16.120Z,103787.97
2023-02-08T08:03:47.816Z,103787.16
2023-02-08T08:06:16.985Z,103787.13
2023-02-08T08:08:47.375Z,103781.78
2023-02-08T08:11:15.387Z,103776.50
2023-02-08T08:13:43.316Z,103770.25
2023-02-08T08:16:11.717Z,103770.28
2023-02-08T08:18:39.760Z,103764.09
2023-02-08T08:21:08.156Z,103765.88
2023-02-08T08:23:37.688Z,103778.34
2023-02-08T08:26:10.342Z,103775.69
2023-02-08T08:28:38.804Z,103767.69
2023-02-08T08:31:11.295Z,103765.94
2023-02-08T08:33:39.199Z,103769.50
2023-02-08T08:36:07.651Z,103767.75
2023-02-08T08:38:35.548Z,103775.75
2023-02-08T08:41:08.442Z,103775.78
2023-02-08T08:43:36.204Z,103783.81
2023-02-08T08:46:05.900Z,103772.28
2023-02-08T08:48:34.166Z,103776.75
2023-02-08T08:51:01.908Z,103769.66
2023-02-08T08:53:29.875Z,103764.34
2023-02-08T08:55:57.697Z,103759.94
2023-02-08T08:58:26.840Z,103757.28
2023-02-08T09:00:55.284Z,103761.78
2023-02-08T09:03:23.097Z,103758.25
2023-02-08T09:05:50.838Z,103759.13
2023-02-08T09:08:18.584Z,103749.38
2023-02-08T09:10:46.344Z,103756.50
2023-02-08T09:13:19.315Z,103752.06
2023-02-08T09:15:49.181Z,103751.19
2023-02-08T09:18:17.186Z,103759.19
2023-02-08T09:20:45.365Z,103757.41
2023-02-08T09:23:14.600Z,103765.41
2023-02-08T09:25:42.405Z,103759.19
2023-02-08T09:28:10.290Z,103762.75
2023-02-08T09:30:38.119Z,103757.38
2023-02-08T09:33:07.297Z,103750.22
2023-02-08T09:35:34.977Z,103757.34
2023-02-08T09:38:04.600Z,103774.25
2023-02-08T09:40:39.401Z,103774.25
2023-02-08T09:43:13.957Z,103774.22
2023-02-08T09:45:59.334Z,103779.53
2023-02-08T09:48:32.716Z,103770.59
2023-02-08T09:51:05.777Z,103778.56
2023-02-08T09:53:37.863Z,103778.53
2023-02-08T09:56:07.912Z,103774.03
2023-02-08T09:58:40.660Z,103765.06
2023-02-08T10:01:18.656Z,103770.38
2023-02-08T10:03:49.735Z,103771.19
2023-02-08T10:06:19.875Z,103762.22
2023-02-08T10:08:51.438Z,103763.94
2023-02-08T10:11:44.342Z,103770.16
2023-02-08T10:14:49.448Z,103773.63
2023-02-08T10:17:37.361Z,103776.22
2023-02-08T10:20:15.618Z,103772.56
2023-02-08T10:22:50.691Z,103776.97
2023-02-08T10:25:32.436Z,103777.81
2023-02-08T10:28:17.693Z,103785.75
2023-02-08T10:30:52.714Z,103794.63
2023-02-08T10:33:26.445Z,103786.50
2023-02-08T10:35:56.246Z,103796.25
2023-02-08T10:38:37.192Z,103784.56
2023-02-08T10:41:10.271Z,103789.84
2023-02-08T10:43:44.465Z,103784.41
2023-02-08T10:46:21.891Z,103781.63
2023-02-08T10:49:01.427Z,103776.16
2023-02-08T10:51:31.732Z,103775.16
2023-02-08T10:53:59.726Z,103776.84
2023-02-08T10:56:51.725Z,103785.66
2023-02-08T10:59:23.044Z,103775.69
2023-02-08T11:01:51.874Z,103776.47
2023-02-08T11:04:19.956Z,103764.72
2023-02-08T11:06:51.783Z,103760.09
2023-02-08T11:09:29.122Z,103762.63
2023-02-08T11:11:58.798Z,103748.19
2023-02-08T11:14:44.636Z,103749.84
2023-02-08T11:17:27.009Z,103747.88
2023-02-08T11:19:55.370Z,103748.69
2023-02-08T11:22:27.434Z,103748.56
2023-02-08T11:24:58.982Z,103750.28
2023-02-08T11:27:35.474Z,103743.88
2023-02-08T11:30:21.366Z,103744.72
2023-02-08T11:32:51.050Z,103731.19
2023-02-08T11:35:23.030Z,103742.81
2023-02-08T11:37:54.761Z,103737.38
2023-02-08T11:40:25.674Z,103731.91
2023-02-08T11:42:54.177Z,103736.22
2023-02-08T11:45:24.751Z,103731.66
2023-02-08T11:47:53.713Z,103724.38
2023-02-08T11:50:26.300Z,103734.91
2023-02-08T11:53:00.069Z,103723.97
2023-02-08T11:55:28.674Z,103718.47
2023-02-08T11:58:01.075Z,103717.38
2023-02-08T12:00:31.252Z,103703.78
2023-02-08T12:03:01.694Z,103698.41
2023-02-08T12:05:41.578Z,103698.34
2023-02-08T12:08:23.187Z,103696.50
2023-02-08T12:11:13.574Z,103687.50
2023-02-08T12:14:09.559Z,103690.97
2023-02-08T12:17:01.720Z,103684.53
2023-02-08T12:19:55.896Z,103692.56
2023-02-08T12:22:26.553Z,103676.44
2023-02-08T12:25:11.337Z,103677.28
2023-02-08T12:27:44.374Z,103669.03
2023-02-08T12:30:22.482Z,103660.88
2023-02-08T12:33:12.305Z,103653.66
2023-02-08T12:36:03.724Z,103640.94
2023-02-08T12:39:19.074Z,103633.63
2023-02-08T12:41:53.468Z,103630.78
2023-02-08T12:44:33.897Z,103630.66
2023-02-08T12:47:12.587Z,103632.34
2023-02-08T12:49:55.250Z,103621.47
2023-02-08T12:52:34.234Z,103615.19
2023-02-08T12:55:06.635Z,103612.47
2023-02-08T12:57:36.341Z,103608.88
2023-02-08T13:00:07.321Z,103607.97
2023-02-08T13:02:44.505Z,103597.13
2023-02-08T13:05:18.752Z,103599.78
2023-02-08T13:07:50.617Z,103602.38
2023-02-08T13:10:26.873Z,103598.75
2023-02-08T13:12:59.744Z,103601.41
2023-02-08T13:15:36.288Z,103596.06
2023-02-08T13:18:13.240Z,103602.28
2023-02-08T13:20:45.813Z,103596.88
2023-02-08T13:23:21.601Z,103593.25
2023-02-08T13:25:51.852Z,103586.09
2023-02-08T13:28:23.686Z,103583.34
2023-02-08T13:30:58.243Z,103578.00
2023-02-08T13:33:33.887Z,103564.38
2023-02-08T13:36:02.165Z,103562.63
2023-02-08T13:38:32.692Z,103565.28
2023-02-08T13:41:08.143Z,103557.19
2023-02-08T13:43:45.090Z,103557.22
2023-02-08T13:46:13.679Z,103552.75
2023-02-08T13:48:45.083Z,103545.66
2023-02-08T13:51:53.207Z,103551.06
2023-02-08T13:54:21.335Z,103548.47
2023-02-08T13:56:51.238Z,103543.16
2023-02-08T13:59:36.167Z,103536.94
2023-02-08T14:02:29.299Z,103540.56
2023-02-08T14:05:30.410Z,103534.31
2023-02-08T14:08:00.431Z,103530.69
2023-02-08T14:10:37.488Z,103530.75
2023-02-08T14:13:09.526Z,103528.13
2023-02-08T14:15:40.776Z,103524.56
2023-02-08T14:18:27.690Z,103521.94
2023-02-08T14:21:07.236Z,103518.41
2023-02-08T14:23:40.585Z,103513.03
2023-02-08T14:26:11.629Z,103521.97
2023-02-08T14:28:44.934Z,103512.13
2023-02-08T14:31:16.677Z,103506.84
2023-02-08T14:33:53.365Z,103496.94
2023-02-08T14:36:29.847Z,103502.31
2023-02-08T14:39:09.730Z,103491.53
2023-02-08T14:41:57.233Z,103487.91
2023-02-08T14:44:59.087Z,103487.97
2023-02-08T14:47:54.444Z,103481.56
2023-02-08T14:50:26.539Z,103478.81
2023-02-08T14:53:00.385Z,103467.16
2023-02-08T14:55:28.897Z,103466.25
2023-02-08T14:58:00.554Z,103459.91
2023-02-08T15:00:33.545Z,103458.16
2023-02-08T15:03:05.141Z,103458.16
2023-02-08T15:05:41.773Z,103455.47
2023-02-08T15:08:09.800Z,103453.69
2023-02-08T15:10:44.924Z,103439.31
2023-02-08T15:13:20.934Z,103437.44
2023-02-08T15:15:54.764Z,103442.81
2023-02-08T15:18:25.586Z,103432.09
2023-02-08T15:21:03.086Z,103433.88
2023-02-08T15:23:31.630Z,103431.16
2023-02-08T15:26:01.413Z,103430.31
2023-02-08T15:28:31.041Z,103417.69
2023-02-08T15:31:01.575Z,103414.09
2023-02-08T15:33:30.868Z,103409.50
2023-02-08T15:36:02.433Z,103404.97
2023-02-08T15:38:31.442Z,103409.47
2023-02-08T15:41:05.526Z,103413.09
2023-02-08T15:43:34.419Z,103406.81
2023-02-08T15:46:05.233Z,103405.06
2023-02-08T15:48:36.977Z,103401.47
2023-02-08T15:51:08.243Z,103400.56
2023-02-08T15:53:45.602Z,103396.09
2023-02-08T15:56:27.014Z,103392.53
2023-02-08T15:59:05.293Z,103394.38
2023-02-08T16:01:33.290Z,103391.69
2023-02-08T16:04:06.098Z,103386.41
2023-02-08T16:06:39.969Z,103385.44
2023-02-08T16:09:08.148Z,103379.13
2023-02-08T16:11:37.406Z,103386.34
2023-02-08T16:14:07.808Z,103382.78
2023-02-08T16:16:41.839Z,103382.78
2023-02-08T16:19:26.009Z,103364.91
2023-02-08T16:21:54.259Z,103360.56
2023-02-08T16:24:27.507Z,103365.94
2023-02-08T16:27:03.502Z,103361.53
2023-02-08T16:29:33.965Z,103361.59
2023-02-08T16:32:11.182Z,103365.28
2023-02-08T16:34:42.547Z,103368.09
2023-02-08T16:37:24.302Z,103370.00
2023-02-08T16:39:53.657Z,103363.91
2023-02-08T16:42:30.993Z,103362.25
2023-02-08T16:45:30.144Z,103358.78
2023-02-08T16:48:04.234Z,103353.50
2023-02-08T16:50:42.751Z,103359.06
2023-02-08T16:53:13.483Z,103353.81
2023-02-08T16:55:41.307Z,103361.19
2023-02-08T16:58:16.080Z,103348.81
2023-02-08T17:00:45.401Z,103357.03
2023-02-08T17:03:13.429Z,103357.28
2023-02-08T17:05:46.476Z,103343.13
2023-02-08T17:08:17.379Z,103337.91
2023-02-08T17:10:46.105Z,103335.41
2023-02-08T17:13:20.236Z,103335.56
2023-02-08T17:15:50.320Z,103330.38
2023-02-08T17:18:18.155Z,103335.84
2023-02-08T17:20:48.015Z,103332.44
2023-02-08T17:23:16.488Z,103331.69
2023-02-08T17:25:44.849Z,103328.22
2023-02-08T17:28:18.264Z,103330.16
2023-02-08T17:30:47.149Z,103329.34
2023-02-08T17:33:18.402Z,103327.72
2023-02-08T17:35:49.287Z,103331.38
2023-02-08T17:38:17.519Z,103327.91
2023-02-08T17:40:45.911Z,103328.91
2023-02-08T17:43:14.501Z,103327.19
2023-02-08T17:45:44.937Z,103325.47
2023-02-08T17:48:14.322Z,103330.88
2023-02-08T17:50:43.960Z,103323.75
2023-02-08T17:53:13.939Z,103321.16
2023-02-08T17:55:43.325Z,103329.34
2023-02-08T17:58:11.394Z,103324.06
2023-02-08T18:00:39.735Z,103324.19
2023-02-08T18:03:07.507Z,103326.06
2023-02-08T18:05:35.434Z,103321.75
2023-02-08T18:08:03.584Z,103324.56
2023-02-08T18:10:35.582Z,103312.19
2023-02-08T18:13:03.348Z,103305.16
2023-02-08T18:15:31.130Z,103305.34
2023-02-08T18:17:58.932Z,103307.19
2023-02-08T18:20:26.643Z,103299.19
2023-02-08T18:22:54.435Z,103299.22
2023-02-08T18:25:22.226Z,103301.06
2023-02-08T18:27:51.668Z,103290.31
2023-02-08T18:30:20.343Z,103289.44
2023-02-08T18:32:48.281Z,103290.34
2023-02-08T18:35:16.057Z,103296.69
2023-02-08T18:37:43.950Z,103297.63
2023-02-08T18:40:12.872Z,103296.75
2023-02-08T18:42:40.648Z,103288.75
2023-02-08T18:45:10.970Z,103292.34
2023-02-08T18:47:39.884Z,103295.94
2023-02-08T18:50:09.142Z,103299.53
2023-02-08T18:52:36.956Z,103300.47
2023-02-08T18:55:05.173Z,103299.59
2023-02-08T18:57:32.982Z,103292.53
2023-02-08T19:00:00.806Z,103287.13
2023-02-08T19:02:31.369Z,103296.09
2023-02-08T19:04:59.124Z,103290.78
2023-02-08T19:07:26.914Z,103290.81
2023-02-08T19:09:54.823Z,103292.69
2023-02-08T19:12:22.798Z,103291.00
2023-02-08T19:14:51.948Z,103300.03
2023-02-08T19:17:20.095Z,103291.16
2023-02-08T19:19:49.510Z,103292.97
2023-02-08T19:22:17.358Z,103283.19
2023-02-08T19:24:45.190Z,103285.00
2023-02-08T19:27:13.052Z,103282.44
2023-02-08T19:29:41.234Z,103286.97
2023-02-08T19:32:09.223Z,103282.56
2023-02-08T19:34:37.099Z,103279.94
2023-02-08T19:37:06.382Z,103285.31
2023-02-08T19:39:34.259Z,103293.38
2023-02-08T19:42:02.122Z,103280.06
2023-02-08T19:44:30.723Z,103272.06
2023-02-08T19:46:58.987Z,103276.56
2023-02-08T19:49:28.340Z,103272.13
2023-02-08T19:51:56.898Z,103272.16
2023-02-08T19:54:26.055Z,103272.19
2023-02-08T19:56:54.956Z,103276.69
2023-02-08T19:59:24.817Z,103276.75
2023-02-08T20:01:52.964Z,103282.13
2023-02-08T20:04:21.571Z,103279.50
2023-02-08T20:06:52.825Z,103278.63
2023-02-08T20:09:20.953Z,103279.56
2023-02-08T20:11:57.233Z,103271.56
2023-02-08T20:14:26.068Z,103276.06
2023-02-08T20:16:54.053Z,103263.59
2023-02-08T20:19:21.873Z,103272.59
2023-02-08T20:21:49.851Z,103261.06
2023-02-08T20:24:18.079Z,103258.41
2023-02-08T20:26:47.137Z,103264.66
2023-02-08T20:29:16.887Z,103258.47
2023-02-08T20:31:47.958Z,103261.19
2023-02-08T20:34:17.289Z,103260.34
2023-02-08T20:36:57.519Z,103262.16
2023-02-08T20:39:33.339Z,103252.38
2023-02-08T20:42:01.127Z,103249.78
2023-02-08T20:44:31.540Z,103247.13
2023-02-08T20:46:59.483Z,103249.88
2023-02-08T20:49:27.340Z,103257.03
2023-02-08T20:51:55.894Z,103257.06
2023-02-08T20:54:24.990Z,103252.63
2023-02-08T20:56:54.103Z,103257.09
2023-02-08T20:59:22.000Z,103268.69
2023-02-08T21:01:51.297Z,103258.03
2023-02-08T21:04:20.381Z,103250.00
2023-02-08T21:06:48.265Z,103251.81
2023-02-08T21:09:18.687Z,103256.31
2023-02-08T21:11:47.207Z,103257.25
2023-02-08T21:14:18.995Z,103252.78
2023-02-08T21:16:47.873Z,103251.91
2023-02-08T21:19:17.528Z,103248.38
2023-02-08T21:21:45.349Z,103246.59
2023-02-08T21:24:13.179Z,103243.94
2023-02-08T21:26:40.999Z,103239.53
2023-02-08T21:29:08.916Z,103236.88
2023-02-08T21:31:37.735Z,103235.13
2023-02-08T21:34:06.269Z,103229.81
2023-02-08T21:36:36.058Z,103230.75
2023-02-08T21:39:04.602Z,103228.06
2023-02-08T21:41:34.333Z,103237.91
2023-02-08T21:44:04.398Z,103238.78
2023-02-08T21:46:33.209Z,103237.03
2023-02-08T21:49:18.959Z,103237.03
2023-02-08T21:52:05.690Z,103230.81
2023-02-08T21:54:44.751Z,103218.31
2023-02-08T21:57:16.123Z,103216.56
2023-02-08T21:59:44.172Z,103221.09
2023-02-08T22:02:16.128Z,103217.53
2023-02-08T22:05:01.302Z,103216.69
2023-02-08T22:07:30.957Z,103214.94
2023-02-08T22:09:59.104Z,103215.91
2023-02-08T22:12:26.892Z,103206.13
2023-02-08T22:14:54.662Z,103197.28
2023-02-08T22:17:22.513Z,103199.97
2023-02-08T22:19:50.341Z,103202.69
2023-02-08T22:22:18.128Z,103200.03
2023-02-08T22:24:47.274Z,103201.88
2023-02-08T22:27:15.080Z,103192.06
2023-02-08T22:29:42.873Z,103195.66
2023-02-08T22:32:12.534Z,103189.44
2023-02-08T22:34:40.410Z,103188.59
2023-02-08T22:37:08.159Z,103183.25
2023-02-08T22:39:36.003Z,103177.03
2023-02-08T22:42:08.639Z,103171.69
2023-02-08T22:44:36.821Z,103177.03
2023-02-08T22:47:06.375Z,103165.50
2023-02-08T22:49:34.294Z,103180.63
2023-02-08T22:52:02.268Z,103180.63
2023-02-08T22:54:30.127Z,103177.94
2023-02-08T22:56:58.123Z,103174.41
2023-02-08T22:59:27.307Z,103177.97
2023-02-08T23:01:55.131Z,103174.41
2023-02-08T23:04:22.985Z,103176.25
2023-02-08T23:06:53.966Z,103173.59
2023-02-08T23:09:21.966Z,103173.59
2023-02-08T23:11:49.711Z,103178.06
2023-02-08T23:14:17.686Z,103170.06
2023-02-08T23:16:46.896Z,103167.44
2023-02-08T23:19:15.734Z,103155.84
2023-02-08T23:21:43.570Z,103166.56
2023-02-08T23:24:12.051Z,103169.25
2023-02-08T23:26:40.569Z,103168.34
2023-02-08T23:29:08.389Z,103170.13
2023-02-08T23:31:36.255Z,103163.00
2023-02-08T23:34:05.441Z,103159.47
2023-02-08T23:36:33.549Z,103165.69
2023-02-08T23:39:03.315Z,103154.13
2023-02-08T23:41:31.119Z,103160.38
2023-02-08T23:43:58.926Z,103148.84
2023-02-08T23:46:28.648Z,103150.69
2023-02-08T23:48:56.571Z,103148.91
2023-02-08T23:51:26.623Z,103156.00
2023-02-08T23:53:55.269Z,103151.56
2023-02-08T23:56:24.444Z,103151.59
2023-02-08T23:58:55.393Z,103153.41
